sensor_id;sensor_type;location;lat;lon;timestamp;pressure;altitude;pressure_sealevel;temperature;humidity
31044;BME280;17710;52.520;13.352;2023-03-20T00:01:48;101219.22;;;17.17;52.67
31044;BME280;17710;52.520;13.352;2023-03-20T00:04:15;101219.56;;;17.42;52.12
31044;BME280;17710;52.520;13.352;2023-03-20T00:06:41;101215.97;;;17.12;52.83
31044;BME280;17710;52.520;13.352;2023-03-20T00:09:08;101218.72;;;17.10;53.02
31044;BME280;17710;52.520;13.352;2023-03-20T00:11:41;101215.94;;;16.96;53.42
31044;BME280;17710;52.520;13.352;2023-03-20T00:14:12;101217.53;;;16.83;54.04
31044;BME280;17710;52.520;13.352;2023-03-20T00:16:41;101215.66;;;16.85;54.08
31044;BME280;17710;52.520;13.352;2023-03-20T00:19:14;101223.59;;;16.69;54.42
31044;BME280;17710;52.520;13.352;2023-03-20T00:21:41;101217.00;;;16.77;54.23
31044;BME280;17710;52.520;13.352;2023-03-20T00:24:08;101219.75;;;16.58;54.83
31044;BME280;17710;52.520;13.352;2023-03-20T00:26:35;101220.31;;;16.64;54.79
31044;BME280;17710;52.520;13.352;2023-03-20T00:29:03;101220.06;;;16.69;54.43
31044;BME280;17710;52.520;13.352;2023-03-20T00:31:32;101220.88;;;16.54;54.98
31044;BME280;17710;52.520;13.352;2023-03-20T00:34:01;101224.03;;;16.27;55.90
31044;BME280;17710;52.520;13.352;2023-03-20T00:36:29;101216.88;;;16.28;55.91
31044;BME280;17710;52.520;13.352;2023-03-20T00:38:56;101204.56;;;16.43;55.26
31044;BME280;17710;52.520;13.352;2023-03-20T00:41:25;101207.72;;;16.33;55.80
31044;BME280;17710;52.520;13.352;2023-03-20T00:43:54;101202.81;;;16.42;55.54
31044;BME280;17710;52.520;13.352;2023-03-20T00:46:22;101208.03;;;16.27;56.07
31044;BME280;17710;52.520;13.352;2023-03-20T00:48:49;101198.75;;;16.34;55.85
31044;BME280;17710;52.520;13.352;2023-03-20T00:51:16;101201.59;;;16.31;55.86
31044;BME280;17710;52.520;13.352;2023-03-20T00:53:44;101203.88;;;16.39;55.87
31044;BME280;17710;52.520;13.352;2023-03-20T00:56:26;101197.59;;;16.23;56.29
31044;BME280;17710;52.520;13.352;2023-03-20T00:58:54;101203.16;;;16.18;56.41
31044;BME280;17710;52.520;13.352;2023-03-20T01:01:20;101201.69;;;16.13;56.27
31044;BME280;17710;52.520;13.352;2023-03-20T01:03:47;101206.91;;;15.97;56.87
31044;BME280;17710;52.520;13.352;2023-03-20T01:06:13;101202.56;;;15.60;57.92
31044;BME280;17710;52.520;13.352;2023-03-20T01:08:40;101204.56;;;15.91;57.28
31044;BME280;17710;52.520;13.352;2023-03-20T01:11:10;101210.66;;;15.76;57.87
31044;BME280;17710;52.520;13.352;2023-03-20T01:13:39;101208.47;;;15.67;57.91
31044;BME280;17710;52.520;13.352;2023-03-20T01:16:16;101205.63;;;15.70;58.17
31044;BME280;17710;52.520;13.352;2023-03-20T01:18:44;101207.03;;;15.60;58.08
31044;BME280;17710;52.520;13.352;2023-03-20T01:21:11;101209.03;;;15.73;57.95
31044;BME280;17710;52.520;13.352;2023-03-20T01:23:38;101205.16;;;15.62;58.09
31044;BME280;17710;52.520;13.352;2023-03-20T01:26:05;101213.19;;;15.79;57.61
31044;BME280;17710;52.520;13.352;2023-03-20T01:28:42;101207.41;;;15.69;57.76
31044;BME280;17710;52.520;13.352;2023-03-20T01:31:09;101211.50;;;15.59;58.04
31044;BME280;17710;52.520;13.352;2023-03-20T01:33:35;101207.34;;;15.53;58.22
31044;BME280;17710;52.520;13.352;2023-03-20T01:36:02;101211.31;;;15.81;57.68
31044;BME280;17710;52.520;13.352;2023-03-20T01:38:29;101214.59;;;15.86;57.57
31044;BME280;17710;52.520;13.352;2023-03-20T01:40:58;101210.44;;;15.80;57.52
31044;BME280;17710;52.520;13.352;2023-03-20T01:43:27;101211.50;;;15.59;58.14
31044;BME280;17710;52.520;13.352;2023-03-20T01:45:58;101214.19;;;15.76;57.96
31044;BME280;17710;52.520;13.352;2023-03-20T01:48:34;101207.34;;;15.71;57.97
31044;BME280;17710;52.520;13.352;2023-03-20T01:51:02;101201.41;;;15.83;57.45
31044;BME280;17710;52.520;13.352;2023-03-20T01:53:29;101206.47;;;15.53;58.27
31044;BME280;17710;52.520;13.352;2023-03-20T01:55:57;101219.03;;;15.68;57.94
31044;BME280;17710;52.520;13.352;2023-03-20T01:58:28;101209.47;;;15.45;58.35
31044;BME280;17710;52.520;13.352;2023-03-20T02:00:58;101217.44;;;15.45;58.33
31044;BME280;17710;52.520;13.352;2023-03-20T02:03:25;101222.78;;;15.45;58.63
31044;BME280;17710;52.520;13.352;2023-03-20T02:05:52;101227.31;;;15.62;58.06
31044;BME280;17710;52.520;13.352;2023-03-20T02:08:24;101227.00;;;15.49;58.57
31044;BME280;17710;52.520;13.352;2023-03-20T02:10:52;101225.13;;;15.70;58.04
31044;BME280;17710;52.520;13.352;2023-03-20T02:13:20;101224.84;;;15.76;57.78
31044;BME280;17710;52.520;13.352;2023-03-20T02:16:02;101227.75;;;15.89;57.76
31044;BME280;17710;52.520;13.352;2023-03-20T02:18:30;101223.66;;;15.82;58.01
31044;BME280;17710;52.520;13.352;2023-03-20T02:21:38;101226.19;;;15.85;57.94
31044;BME280;17710;52.520;13.352;2023-03-20T02:24:29;101216.94;;;15.75;58.47
31044;BME280;17710;52.520;13.352;2023-03-20T02:27:05;101223.53;;;15.85;57.85
31044;BME280;17710;52.520;13.352;2023-03-20T02:30:01;101215.59;;;15.83;58.04
31044;BME280;17710;52.520;13.352;2023-03-20T02:33:03;101215.34;;;15.71;58.47
31044;BME280;17710;52.520;13.352;2023-03-20T02:36:10;101219.81;;;15.70;58.37
31044;BME280;17710;52.520;13.352;2023-03-20T02:38:55;101217.63;;;15.61;58.47
31044;BME280;17710;52.520;13.352;2023-03-20T02:41:27;101221.03;;;15.63;58.53
31044;BME280;17710;52.520;13.352;2023-03-20T02:44:00;101219.97;;;15.67;58.54
31044;BME280;17710;52.520;13.352;2023-03-20T02:46:35;101225.56;;;15.80;57.86
31044;BME280;17710;52.520;13.352;2023-03-20T02:49:10;101218.94;;;15.70;58.27
31044;BME280;17710;52.520;13.352;2023-03-20T02:51:44;101217.25;;;15.86;57.82
31044;BME280;17710;52.520;13.352;2023-03-20T02:54:21;101219.38;;;15.97;57.62
31044;BME280;17710;52.520;13.352;2023-03-20T02:56:57;101222.41;;;15.89;57.77
31044;BME280;17710;52.520;13.352;2023-03-20T02:59:27;101229.47;;;15.90;58.11
31044;BME280;17710;52.520;13.352;2023-03-20T03:02:02;101227.94;;;15.86;57.98
31044;BME280;17710;52.520;13.352;2023-03-20T03:04:33;101222.53;;;15.87;57.96
31044;BME280;17710;52.520;13.352;2023-03-20T03:07:02;101216.09;;;15.91;57.90
31044;BME280;17710;52.520;13.352;2023-03-20T03:09:34;101222.06;;;15.61;58.88
31044;BME280;17710;52.520;13.352;2023-03-20T03:12:06;101220.16;;;15.81;58.38
31044;BME280;17710;52.520;13.352;2023-03-20T03:14:37;101224.16;;;15.90;58.31
31044;BME280;17710;52.520;13.352;2023-03-20T03:17:07;101224.69;;;15.79;58.27
31044;BME280;17710;52.520;13.352;2023-03-20T03:19:36;101230.59;;;16.03;57.73
31044;BME280;17710;52.520;13.352;2023-03-20T03:22:05;101219.56;;;15.93;57.93
31044;BME280;17710;52.520;13.352;2023-03-20T03:24:36;101229.97;;;15.81;58.49
31044;BME280;17710;52.520;13.352;2023-03-20T03:27:06;101232.06;;;15.74;58.79
31044;BME280;17710;52.520;13.352;2023-03-20T03:29:37;101234.00;;;15.71;58.88
31044;BME280;17710;52.520;13.352;2023-03-20T03:32:05;101234.72;;;15.74;58.64
31044;BME280;17710;52.520;13.352;2023-03-20T03:34:33;101240.72;;;15.61;59.23
31044;BME280;17710;52.520;13.352;2023-03-20T03:37:06;101238.69;;;15.66;59.38
31044;BME280;17710;52.520;13.352;2023-03-20T03:39:40;101230.72;;;15.83;58.72
31044;BME280;17710;52.520;13.352;2023-03-20T03:42:15;101232.63;;;15.62;59.50
31044;BME280;17710;52.520;13.352;2023-03-20T03:44:51;101229.66;;;15.49;59.68
31044;BME280;17710;52.520;13.352;2023-03-20T03:47:21;101225.91;;;15.55;59.28
31044;BME280;17710;52.520;13.352;2023-03-20T03:49:52;101229.78;;;15.48;59.81
31044;BME280;17710;52.520;13.352;2023-03-20T03:52:23;101233.81;;;15.57;59.78
31044;BME280;17710;52.520;13.352;2023-03-20T03:54:55;101222.47;;;15.51;59.64
31044;BME280;17710;52.520;13.352;2023-03-20T03:57:28;101228.19;;;15.63;59.30
31044;BME280;17710;52.520;13.352;2023-03-20T03:59:57;101228.75;;;15.50;59.87
31044;BME280;17710;52.520;13.352;2023-03-20T04:02:25;101222.66;;;15.67;59.50
31044;BME280;17710;52.520;13.352;2023-03-20T04:04:52;101229.59;;;15.51;60.00
31044;BME280;17710;52.520;13.352;2023-03-20T04:07:20;101233.03;;;15.54;59.85
31044;BME280;17710;52.520;13.352;2023-03-20T04:09:46;101239.63;;;15.46;60.14
31044;BME280;17710;52.520;13.352;2023-03-20T04:12:32;101239.13;;;15.57;59.95
31044;BME280;17710;52.520;13.352;2023-03-20T04:14:58;101239.97;;;15.38;60.39
31044;BME280;17710;52.520;13.352;2023-03-20T04:17:25;101239.69;;;15.63;59.80
31044;BME280;17710;52.520;13.352;2023-03-20T04:19:51;101250.66;;;15.57;60.02
31044;BME280;17710;52.520;13.352;2023-03-20T04:22:18;101248.84;;;15.58;60.06
31044;BME280;17710;52.520;13.352;2023-03-20T04:24:44;101254.66;;;15.47;60.29
31044;BME280;17710;52.520;13.352;2023-03-20T04:27:11;101262.03;;;15.61;59.92
31044;BME280;17710;52.520;13.352;2023-03-20T04:29:39;101249.06;;;15.72;59.66
31044;BME280;17710;52.520;13.352;2023-03-20T04:32:05;101261.47;;;15.54;60.34
31044;BME280;17710;52.520;13.352;2023-03-20T04:34:32;101258.19;;;15.47;60.45
31044;BME280;17710;52.520;13.352;2023-03-20T04:36:58;101263.97;;;15.57;60.09
31044;BME280;17710;52.520;13.352;2023-03-20T04:39:26;101258.50;;;15.41;60.73
31044;BME280;17710;52.520;13.352;2023-03-20T04:41:52;101262.59;;;15.48;60.62
31044;BME280;17710;52.520;13.352;2023-03-20T04:44:18;101265.91;;;15.35;60.83
31044;BME280;17710;52.520;13.352;2023-03-20T04:46:46;101259.56;;;15.37;61.04
31044;BME280;17710;52.520;13.352;2023-03-20T04:49:13;101255.09;;;15.19;61.65
31044;BME280;17710;52.520;13.352;2023-03-20T04:51:40;101254.81;;;15.25;61.35
31044;BME280;17710;52.520;13.352;2023-03-20T04:54:06;101266.19;;;15.47;60.97
31044;BME280;17710;52.520;13.352;2023-03-20T04:56:33;101270.22;;;15.56;60.45
31044;BME280;17710;52.520;13.352;2023-03-20T04:58:59;101263.38;;;15.69;60.19
31044;BME280;17710;52.520;13.352;2023-03-20T05:01:26;101266.56;;;15.59;60.43
31044;BME280;17710;52.520;13.352;2023-03-20T05:03:53;101264.47;;;15.46;61.18
31044;BME280;17710;52.520;13.352;2023-03-20T05:06:24;101259.22;;;15.64;60.43
31044;BME280;17710;52.520;13.352;2023-03-20T05:08:51;101264.41;;;15.67;60.65
31044;BME280;17710;52.520;13.352;2023-03-20T05:11:17;101263.94;;;15.38;61.17
31044;BME280;17710;52.520;13.352;2023-03-20T05:13:44;101260.88;;;15.29;61.63
31044;BME280;17710;52.520;13.352;2023-03-20T05:16:10;101268.69;;;15.50;61.29
31044;BME280;17710;52.520;13.352;2023-03-20T05:18:37;101257.47;;;15.63;60.84
31044;BME280;17710;52.520;13.352;2023-03-20T05:21:06;101268.41;;;15.75;60.38
31044;BME280;17710;52.520;13.352;2023-03-20T05:23:33;101262.88;;;15.80;60.31
31044;BME280;17710;52.520;13.352;2023-03-20T05:25:59;101256.72;;;15.61;60.75
31044;BME280;17710;52.520;13.352;2023-03-20T05:28:26;101273.81;;;15.74;60.78
31044;BME280;17710;52.520;13.352;2023-03-20T05:30:53;101270.78;;;15.63;61.34
31044;BME280;17710;52.520;13.352;2023-03-20T05:33:20;101274.25;;;15.46;62.03
31044;BME280;17710;52.520;13.352;2023-03-20T05:35:46;101271.72;;;15.24;62.44
31044;BME280;17710;52.520;13.352;2023-03-20T05:38:14;101268.47;;;15.36;62.34
31044;BME280;17710;52.520;13.352;2023-03-20T05:40:41;101269.53;;;15.52;62.11
31044;BME280;17710;52.520;13.352;2023-03-20T05:43:07;101267.38;;;15.61;61.94
31044;BME280;17710;52.520;13.352;2023-03-20T05:45:34;101265.03;;;15.34;62.74
31044;BME280;17710;52.520;13.352;2023-03-20T05:48:00;101272.50;;;15.45;62.21
31044;BME280;17710;52.520;13.352;2023-03-20T05:50:28;101266.19;;;15.29;63.01
31044;BME280;17710;52.520;13.352;2023-03-20T05:52:56;101269.22;;;15.40;62.85
31044;BME280;17710;52.520;13.352;2023-03-20T05:55:24;101267.34;;;15.42;62.67
31044;BME280;17710;52.520;13.352;2023-03-20T05:57:51;101276.47;;;15.36;62.91
31044;BME280;17710;52.520;13.352;2023-03-20T06:00:18;101273.66;;;15.39;62.92
31044;BME280;17710;52.520;13.352;2023-03-20T06:02:45;101277.72;;;15.48;62.64
31044;BME280;17710;52.520;13.352;2023-03-20T06:05:11;101284.59;;;15.33;62.81
31044;BME280;17710;52.520;13.352;2023-03-20T06:07:37;101280.28;;;15.31;63.09
31044;BME280;17710;52.520;13.352;2023-03-20T06:10:07;101286.69;;;15.27;63.14
31044;BME280;17710;52.520;13.352;2023-03-20T06:12:35;101296.72;;;15.40;62.77
31044;BME280;17710;52.520;13.352;2023-03-20T06:15:02;101309.50;;;15.32;62.94
31044;BME280;17710;52.520;13.352;2023-03-20T06:17:29;101311.47;;;14.90;64.26
31044;BME280;17710;52.520;13.352;2023-03-20T06:19:56;101311.22;;;15.33;63.29
31044;BME280;17710;52.520;13.352;2023-03-20T06:22:22;101316.69;;;15.30;63.22
31044;BME280;17710;52.520;13.352;2023-03-20T06:24:49;101315.91;;;15.28;63.00
31044;BME280;17710;52.520;13.352;2023-03-20T06:27:16;101325.34;;;15.35;62.73
31044;BME280;17710;52.520;13.352;2023-03-20T06:29:43;101316.91;;;15.44;62.09
31044;BME280;17710;52.520;13.352;2023-03-20T06:32:10;101329.91;;;15.13;63.01
31044;BME280;17710;52.520;13.352;2023-03-20T06:34:39;101331.88;;;15.09;63.08
31044;BME280;17710;52.520;13.352;2023-03-20T06:37:06;101333.81;;;15.25;62.58
31044;BME280;17710;52.520;13.352;2023-03-20T06:39:32;101335.50;;;15.07;63.31
31044;BME280;17710;52.520;13.352;2023-03-20T06:41:59;101337.13;;;15.30;61.69
31044;BME280;17710;52.520;13.352;2023-03-20T06:44:26;101340.19;;;15.02;62.78
31044;BME280;17710;52.520;13.352;2023-03-20T06:46:54;101349.22;;;14.98;62.90
31044;BME280;17710;52.520;13.352;2023-03-20T06:49:20;101347.38;;;15.00;62.70
31044;BME280;17710;52.520;13.352;2023-03-20T06:51:47;101346.47;;;15.20;62.08
31044;BME280;17710;52.520;13.352;2023-03-20T06:54:13;101347.34;;;15.20;61.96
31044;BME280;17710;52.520;13.352;2023-03-20T06:56:40;101352.38;;;15.26;61.57
31044;BME280;17710;52.520;13.352;2023-03-20T06:59:06;101351.47;;;15.27;61.64
31044;BME280;17710;52.520;13.352;2023-03-20T07:01:34;101352.50;;;15.23;61.53
31044;BME280;17710;52.520;13.352;2023-03-20T07:04:02;101353.88;;;15.13;62.08
31044;BME280;17710;52.520;13.352;2023-03-20T07:06:29;101357.31;;;15.35;61.63
31044;BME280;17710;52.520;13.352;2023-03-20T07:08:55;101362.53;;;14.98;62.28
31044;BME280;17710;52.520;13.352;2023-03-20T07:11:22;101363.06;;;14.86;62.87
31044;BME280;17710;52.520;13.352;2023-03-20T07:13:49;101366.59;;;15.06;62.41
31044;BME280;17710;52.520;13.352;2023-03-20T07:16:15;101377.81;;;14.72;63.63
31044;BME280;17710;52.520;13.352;2023-03-20T07:18:42;101378.63;;;14.95;63.01
31044;BME280;17710;52.520;13.352;2023-03-20T07:21:13;101370.78;;;14.92;62.69
31044;BME280;17710;52.520;13.352;2023-03-20T07:23:42;101374.75;;;14.61;63.88
31044;BME280;17710;52.520;13.352;2023-03-20T07:26:08;101380.03;;;14.83;62.68
31044;BME280;17710;52.520;13.352;2023-03-20T07:28:38;101376.69;;;14.78;62.99
31044;BME280;17710;52.520;13.352;2023-03-20T07:31:05;101373.63;;;14.67;62.82
31044;BME280;17710;52.520;13.352;2023-03-20T07:33:32;101384.75;;;14.77;62.76
31044;BME280;17710;52.520;13.352;2023-03-20T07:35:58;101385.75;;;14.74;62.88
31044;BME280;17710;52.520;13.352;2023-03-20T07:38:26;101387.41;;;14.56;63.22
31044;BME280;17710;52.520;13.352;2023-03-20T07:40:53;101384.75;;;14.77;62.53
31044;BME280;17710;52.520;13.352;2023-03-20T07:43:20;101388.47;;;14.93;61.11
31044;BME280;17710;52.520;13.352;2023-03-20T07:45:46;101387.41;;;15.17;60.51
31044;BME280;17710;52.520;13.352;2023-03-20T07:48:13;101384.56;;;15.01;60.88
31044;BME280;17710;52.520;13.352;2023-03-20T07:50:39;101390.38;;;15.30;60.38
31044;BME280;17710;52.520;13.352;2023-03-20T07:53:06;101381.63;;;15.46;59.75
31044;BME280;17710;52.520;13.352;2023-03-20T07:55:34;101378.38;;;15.40;59.33
31044;BME280;17710;52.520;13.352;2023-03-20T07:58:01;101378.66;;;15.54;59.33
31044;BME280;17710;52.520;13.352;2023-03-20T08:00:30;101385.09;;;15.87;58.23
31044;BME280;17710;52.520;13.352;2023-03-20T08:02:57;101390.31;;;15.89;58.21
31044;BME280;17710;52.520;13.352;2023-03-20T08:05:23;101389.03;;;15.60;58.48
31044;BME280;17710;52.520;13.352;2023-03-20T08:07:50;101391.47;;;15.65;58.48
31044;BME280;17710;52.520;13.352;2023-03-20T08:10:17;101391.34;;;16.05;57.70
31044;BME280;17710;52.520;13.352;2023-03-20T08:12:44;101398.53;;;16.03;57.47
31044;BME280;17710;52.520;13.352;2023-03-20T08:15:11;101400.13;;;16.07;57.06
31044;BME280;17710;52.520;13.352;2023-03-20T08:17:41;101399.69;;;15.79;57.45
31044;BME280;17710;52.520;13.352;2023-03-20T08:20:08;101409.13;;;15.86;57.63
31044;BME280;17710;52.520;13.352;2023-03-20T08:22:35;101408.09;;;15.88;57.28
31044;BME280;17710;52.520;13.352;2023-03-20T08:25:01;101421.75;;;16.01;56.92
31044;BME280;17710;52.520;13.352;2023-03-20T08:27:28;101424.69;;;15.95;56.91
31044;BME280;17710;52.520;13.352;2023-03-20T08:29:56;101417.03;;;15.69;57.15
31044;BME280;17710;52.520;13.352;2023-03-20T08:32:23;101413.25;;;15.74;57.50
31044;BME280;17710;52.520;13.352;2023-03-20T08:34:50;101413.66;;;15.84;56.82
31044;BME280;17710;52.520;13.352;2023-03-20T08:37:19;101412.56;;;15.69;57.33
31044;BME280;17710;52.520;13.352;2023-03-20T08:39:46;101410.63;;;15.54;58.17
31044;BME280;17710;52.520;13.352;2023-03-20T08:42:12;101405.78;;;15.62;57.90
31044;BME280;17710;52.520;13.352;2023-03-20T08:44:39;101402.59;;;15.93;57.00
31044;BME280;17710;52.520;13.352;2023-03-20T08:47:07;101397.63;;;16.21;55.80
31044;BME280;17710;52.520;13.352;2023-03-20T08:49:35;101411.03;;;16.39;55.26
31044;BME280;17710;52.520;13.352;2023-03-20T08:52:02;101404.59;;;16.07;55.28
31044;BME280;17710;52.520;13.352;2023-03-20T08:54:28;101411.22;;;15.98;55.45
31044;BME280;17710;52.520;13.352;2023-03-20T08:56:55;101415.66;;;16.16;55.31
31044;BME280;17710;52.520;13.352;2023-03-20T08:59:21;101411.72;;;16.06;55.12
31044;BME280;17710;52.520;13.352;2023-03-20T09:01:48;101418.34;;;16.16;55.16
31044;BME280;17710;52.520;13.352;2023-03-20T09:04:16;101414.59;;;16.20;54.40
31044;BME280;17710;52.520;13.352;2023-03-20T09:06:42;101407.16;;;16.27;53.53
31044;BME280;17710;52.520;13.352;2023-03-20T09:09:09;101406.81;;;16.52;52.97
31044;BME280;17710;52.520;13.352;2023-03-20T09:11:36;101402.47;;;16.68;51.89
31044;BME280;17710;52.520;13.352;2023-03-20T09:14:02;101418.66;;;16.46;52.23
31044;BME280;17710;52.520;13.352;2023-03-20T09:16:28;101411.28;;;16.51;52.50
31044;BME280;17710;52.520;13.352;2023-03-20T09:18:55;101423.56;;;16.37;52.52
31044;BME280;17710;52.520;13.352;2023-03-20T09:21:25;101416.47;;;16.00;53.66
31044;BME280;17710;52.520;13.352;2023-03-20T09:23:52;101404.03;;;16.00;52.68
31044;BME280;17710;52.520;13.352;2023-03-20T09:26:22;101403.84;;;16.03;52.29
31044;BME280;17710;52.520;13.352;2023-03-20T09:28:49;101404.44;;;15.91;52.96
31044;BME280;17710;52.520;13.352;2023-03-20T09:31:15;101404.13;;;16.16;52.45
31044;BME280;17710;52.520;13.352;2023-03-20T09:33:42;101411.97;;;16.38;51.60
31044;BME280;17710;52.520;13.352;2023-03-20T09:36:08;101404.25;;;16.67;50.92
31044;BME280;17710;52.520;13.352;2023-03-20T09:38:37;101405.88;;;17.06;49.86
31044;BME280;17710;52.520;13.352;2023-03-20T09:41:11;101404.78;;;16.57;51.16
31044;BME280;17710;52.520;13.352;2023-03-20T09:43:49;101404.13;;;16.88;50.48
31044;BME280;17710;52.520;13.352;2023-03-20T09:46:33;101399.81;;;17.02;49.58
31044;BME280;17710;52.520;13.352;2023-03-20T09:49:11;101390.75;;;17.22;49.13
31044;BME280;17710;52.520;13.352;2023-03-20T09:51:43;101402.16;;;17.26;49.31
31044;BME280;17710;52.520;13.352;2023-03-20T09:54:20;101401.44;;;17.22;48.45
31044;BME280;17710;52.520;13.352;2023-03-20T09:56:50;101398.63;;;17.25;48.58
31044;BME280;17710;52.520;13.352;2023-03-20T09:59:18;101416.63;;;16.51;50.15
31044;BME280;17710;52.520;13.352;2023-03-20T10:01:49;101417.88;;;16.80;49.50
31044;BME280;17710;52.520;13.352;2023-03-20T10:04:17;101420.28;;;16.31;49.89
31044;BME280;17710;52.520;13.352;2023-03-20T10:06:44;101420.47;;;16.46;49.48
31044;BME280;17710;52.520;13.352;2023-03-20T10:09:15;101421.75;;;16.01;50.46
31044;BME280;17710;52.520;13.352;2023-03-20T10:12:02;101422.50;;;16.41;49.81
31044;BME280;17710;52.520;13.352;2023-03-20T10:14:38;101423.25;;;16.61;49.19
31044;BME280;17710;52.520;13.352;2023-03-20T10:17:27;101421.47;;;16.96;48.05
31044;BME280;17710;52.520;13.352;2023-03-20T10:20:18;101420.84;;;16.74;48.35
31044;BME280;17710;52.520;13.352;2023-03-20T10:22:52;101422.00;;;16.32;49.28
31044;BME280;17710;52.520;13.352;2023-03-20T10:25:23;101427.16;;;16.35;49.12
31044;BME280;17710;52.520;13.352;2023-03-20T10:27:56;101417.53;;;16.69;48.60
31044;BME280;17710;52.520;13.352;2023-03-20T10:30:40;101415.44;;;16.57;48.48
31044;BME280;17710;52.520;13.352;2023-03-20T10:33:21;101421.50;;;16.24;49.33
31044;BME280;17710;52.520;13.352;2023-03-20T10:35:59;101415.34;;;16.41;48.90
31044;BME280;17710;52.520;13.352;2023-03-20T10:38:35;101413.78;;;16.54;48.87
31044;BME280;17710;52.520;13.352;2023-03-20T10:41:09;101414.41;;;16.95;47.93
31044;BME280;17710;52.520;13.352;2023-03-20T10:43:41;101404.13;;;17.05;47.34
31044;BME280;17710;52.520;13.352;2023-03-20T10:46:10;101405.53;;;16.78;47.62
31044;BME280;17710;52.520;13.352;2023-03-20T10:48:41;101407.28;;;16.79;47.50
31044;BME280;17710;52.520;13.352;2023-03-20T10:51:19;101402.00;;;17.11;47.29
31044;BME280;17710;52.520;13.352;2023-03-20T10:53:51;101408.88;;;17.33;46.42
31044;BME280;17710;52.520;13.352;2023-03-20T10:56:26;101407.53;;;17.41;46.65
31044;BME280;17710;52.520;13.352;2023-03-20T10:58:58;101398.97;;;17.35;46.20
31044;BME280;17710;52.520;13.352;2023-03-20T11:01:28;101413.56;;;16.78;47.76
31044;BME280;17710;52.520;13.352;2023-03-20T11:03:55;101401.38;;;16.89;47.31
31044;BME280;17710;52.520;13.352;2023-03-20T11:06:23;101405.31;;;16.99;46.84
31044;BME280;17710;52.520;13.352;2023-03-20T11:08:52;101397.44;;;17.13;46.89
31044;BME280;17710;52.520;13.352;2023-03-20T11:11:25;101395.81;;;17.44;46.02
31044;BME280;17710;52.520;13.352;2023-03-20T11:13:53;101395.16;;;17.23;45.95
31044;BME280;17710;52.520;13.352;2023-03-20T11:16:22;101392.56;;;17.22;45.79
31044;BME280;17710;52.520;13.352;2023-03-20T11:18:50;101387.94;;;17.25;45.98
31044;BME280;17710;52.520;13.352;2023-03-20T11:21:20;101392.09;;;17.31;45.97
31044;BME280;17710;52.520;13.352;2023-03-20T11:23:48;101397.75;;;17.07;46.69
31044;BME280;17710;52.520;13.352;2023-03-20T11:26:16;101402.47;;;17.02;46.62
31044;BME280;17710;52.520;13.352;2023-03-20T11:28:50;101400.16;;;17.29;46.49
31044;BME280;17710;52.520;13.352;2023-03-20T11:31:20;101399.59;;;17.40;46.27
31044;BME280;17710;52.520;13.352;2023-03-20T11:33:52;101396.38;;;17.33;46.30
31044;BME280;17710;52.520;13.352;2023-03-20T11:36:27;101391.31;;;16.94;46.87
31044;BME280;17710;52.520;13.352;2023-03-20T11:39:00;101388.72;;;17.10;46.86
31044;BME280;17710;52.520;13.352;2023-03-20T11:41:29;101391.00;;;17.83;45.48
31044;BME280;17710;52.520;13.352;2023-03-20T11:43:57;101388.00;;;17.89;45.04
31044;BME280;17710;52.520;13.352;2023-03-20T11:46:24;101386.94;;;17.43;45.72
31044;BME280;17710;52.520;13.352;2023-03-20T11:49:03;101381.84;;;16.71;47.42
31044;BME280;17710;52.520;13.352;2023-03-20T11:51:30;101374.63;;;16.55;47.65
31044;BME280;17710;52.520;13.352;2023-03-20T11:53:59;101376.31;;;16.57;48.06
31044;BME280;17710;52.520;13.352;2023-03-20T11:56:27;101369.44;;;16.34;47.91
31044;BME280;17710;52.520;13.352;2023-03-20T11:58:59;101374.88;;;16.33;48.48
31044;BME280;17710;52.520;13.352;2023-03-20T12:01:28;101369.91;;;16.79;47.33
31044;BME280;17710;52.520;13.352;2023-03-20T12:04:03;101364.78;;;17.08;46.98
31044;BME280;17710;52.520;13.352;2023-03-20T12:06:40;101367.56;;;17.23;46.14
31044;BME280;17710;52.520;13.352;2023-03-20T12:09:14;101361.78;;;17.14;46.61
31044;BME280;17710;52.520;13.352;2023-03-20T12:11:47;101364.31;;;17.00;46.78
31044;BME280;17710;52.520;13.352;2023-03-20T12:14:26;101356.56;;;16.79;47.05
31044;BME280;17710;52.520;13.352;2023-03-20T12:17:09;101363.81;;;16.58;47.25
31044;BME280;17710;52.520;13.352;2023-03-20T12:19:38;101360.44;;;16.54;47.28
31044;BME280;17710;52.520;13.352;2023-03-20T12:22:14;101352.19;;;16.42;47.83
31044;BME280;17710;52.520;13.352;2023-03-20T12:24:46;101346.47;;;16.49;47.25
31044;BME280;17710;52.520;13.352;2023-03-20T12:27:20;101353.59;;;16.49;47.25
31044;BME280;17710;52.520;13.352;2023-03-20T12:29:54;101352.28;;;16.57;46.88
31044;BME280;17710;52.520;13.352;2023-03-20T12:32:25;101344.47;;;17.06;46.04
31044;BME280;17710;52.520;13.352;2023-03-20T12:34:57;101342.72;;;17.38;44.97
31044;BME280;17710;52.520;13.352;2023-03-20T12:37:24;101343.78;;;17.51;44.64
31044;BME280;17710;52.520;13.352;2023-03-20T12:39:52;101342.53;;;17.74;43.96
31044;BME280;17710;52.520;13.352;2023-03-20T12:42:30;101341.66;;;17.73;44.02
31044;BME280;17710;52.520;13.352;2023-03-20T12:45:04;101336.31;;;17.25;44.75
31044;BME280;17710;52.520;13.352;2023-03-20T12:47:52;101337.88;;;16.61;45.99
31044;BME280;17710;52.520;13.352;2023-03-20T12:50:29;101334.31;;;16.44;46.94
31044;BME280;17710;52.520;13.352;2023-03-20T12:53:06;101330.53;;;16.48;46.99
31044;BME280;17710;52.520;13.352;2023-03-20T12:55:43;101329.47;;;16.69;46.73